sensor_id;sensor_type;location;lat;lon;timestamp;P1;durP1;ratioP1;P2;durP2;ratioP2
57643;SDS011;43474;46.510;6.686;2023-02-15T00:01:25;32.50;;;12.23;;
57643;SDS011;43474;46.510;6.686;2023-02-15T00:03:51;28.92;;;10.80;;
57643;SDS011;43474;46.510;6.686;2023-02-15T00:06:16;28.45;;;11.55;;
57643;SDS011;43474;46.510;6.686;2023-02-15T00:08:44;34.00;;;13.10;;
57643;SDS011;43474;46.510;6.686;2023-02-15T00:11:10;27.45;;;12.30;;
57643;SDS011;43474;46.510;6.686;2023-02-15T00:13:37;27.95;;;10.93;;
57643;SDS011;43474;46.510;6.686;2023-02-15T00:16:06;25.48;;;9.70;;
57643;SDS011;43474;46.510;6.686;2023-02-15T00:18:33;26.00;;;11.57;;
57643;SDS011;43474;46.510;6.686;2023-02-15T00:21:02;28.45;;;12.35;;
57643;SDS011;43474;46.510;6.686;2023-02-15T00:23:30;33.05;;;12.05;;
57643;SDS011;43474;46.510;6.686;2023-02-15T00:26:05;31.45;;;12.48;;
57643;SDS011;43474;46.510;6.686;2023-02-15T00:28:32;35.92;;;13.70;;
57643;SDS011;43474;46.510;6.686;2023-02-15T00:31:02;36.78;;;13.75;;
57643;SDS011;43474;46.510;6.686;2023-02-15T00:33:31;38.83;;;14.93;;
57643;SDS011;43474;46.510;6.686;2023-02-15T00:35:57;38.35;;;15.15;;
57643;SDS011;43474;46.510;6.686;2023-02-15T00:38:25;38.38;;;14.07;;
57643;SDS011;43474;46.510;6.686;2023-02-15T00:40:52;33.85;;;13.50;;
57643;SDS011;43474;46.510;6.686;2023-02-15T00:43:19;33.97;;;14.82;;
57643;SDS011;43474;46.510;6.686;2023-02-15T00:45:45;38.75;;;14.80;;
57643;SDS011;43474;46.510;6.686;2023-02-15T00:48:11;39.38;;;15.02;;
57643;SDS011;43474;46.510;6.686;2023-02-15T00:50:37;33.08;;;13.02;;
57643;SDS011;43474;46.510;6.686;2023-02-15T00:53:02;28.90;;;12.63;;
57643;SDS011;43474;46.510;6.686;2023-02-15T00:55:28;24.95;;;10.98;;
57643;SDS011;43474;46.510;6.686;2023-02-15T00:57:53;24.27;;;10.25;;
57643;SDS011;43474;46.510;6.686;2023-02-15T01:00:19;28.00;;;10.38;;
57643;SDS011;43474;46.510;6.686;2023-02-15T01:02:45;24.58;;;10.25;;
57643;SDS011;43474;46.510;6.686;2023-02-15T01:05:10;26.13;;;10.57;;
57643;SDS011;43474;46.510;6.686;2023-02-15T01:07:36;22.45;;;10.00;;
57643;SDS011;43474;46.510;6.686;2023-02-15T01:10:01;24.70;;;11.05;;
57643;SDS011;43474;46.510;6.686;2023-02-15T01:12:27;165.18;;;44.67;;
57643;SDS011;43474;46.510;6.686;2023-02-15T01:14:53;1999.90;;;999.90;;
57643;SDS011;43474;46.510;6.686;2023-02-15T01:17:19;33.08;;;15.52;;
57643;SDS011;43474;46.510;6.686;2023-02-15T01:19:44;33.17;;;17.63;;
57643;SDS011;43474;46.510;6.686;2023-02-15T01:22:10;30.58;;;17.58;;
57643;SDS011;43474;46.510;6.686;2023-02-15T01:24:35;44.60;;;20.88;;
57643;SDS011;43474;46.510;6.686;2023-02-15T01:27:01;42.28;;;19.23;;
57643;SDS011;43474;46.510;6.686;2023-02-15T01:29:27;37.90;;;21.30;;
57643;SDS011;43474;46.510;6.686;2023-02-15T01:31:53;44.47;;;20.42;;
57643;SDS011;43474;46.510;6.686;2023-02-15T01:34:18;40.88;;;20.48;;
57643;SDS011;43474;46.510;6.686;2023-02-15T01:36:44;36.72;;;20.38;;
57643;SDS011;43474;46.510;6.686;2023-02-15T01:39:09;47.85;;;23.08;;
57643;SDS011;43474;46.510;6.686;2023-02-15T01:41:36;45.80;;;24.45;;
57643;SDS011;43474;46.510;6.686;2023-02-15T01:44:02;24.83;;;12.32;;
57643;SDS011;43474;46.510;6.686;2023-02-15T01:46:31;43.42;;;14.98;;
57643;SDS011;43474;46.510;6.686;2023-02-15T01:49:09;193.35;;;29.15;;
57643;SDS011;43474;46.510;6.686;2023-02-15T01:51:40;41.08;;;15.20;;
57643;SDS011;43474;46.510;6.686;2023-02-15T01:56:46;36.83;;;15.45;;
57643;SDS011;43474;46.510;6.686;2023-02-15T01:59:16;41.00;;;16.35;;
57643;SDS011;43474;46.510;6.686;2023-02-15T02:01:48;47.00;;;18.60;;
57643;SDS011;43474;46.510;6.686;2023-02-15T02:04:17;48.78;;;19.45;;
57643;SDS011;43474;46.510;6.686;2023-02-15T02:06:49;46.72;;;18.95;;
57643;SDS011;43474;46.510;6.686;2023-02-15T02:09:16;48.70;;;18.48;;
57643;SDS011;43474;46.510;6.686;2023-02-15T02:11:41;50.63;;;18.45;;
57643;SDS011;43474;46.510;6.686;2023-02-15T02:14:10;50.67;;;18.67;;
57643;SDS011;43474;46.510;6.686;2023-02-15T02:21:53;37.03;;;15.82;;
57643;SDS011;43474;46.510;6.686;2023-02-15T02:27:41;39.07;;;14.63;;
57643;SDS011;43474;46.510;6.686;2023-02-15T02:36:00;36.30;;;14.50;;
57643;SDS011;43474;46.510;6.686;2023-02-15T02:38:48;32.33;;;14.18;;
57643;SDS011;43474;46.510;6.686;2023-02-15T02:49:28;37.55;;;13.85;;
57643;SDS011;43474;46.510;6.686;2023-02-15T02:51:58;33.95;;;13.52;;
57643;SDS011;43474;46.510;6.686;2023-02-15T02:54:25;31.38;;;12.43;;
57643;SDS011;43474;46.510;6.686;2023-02-15T02:56:52;34.78;;;13.13;;
57643;SDS011;43474;46.510;6.686;2023-02-15T02:59:20;31.38;;;12.15;;
57643;SDS011;43474;46.510;6.686;2023-02-15T03:02:28;33.92;;;12.52;;
57643;SDS011;43474;46.510;6.686;2023-02-15T03:04:49;27.90;;;12.77;;
57643;SDS011;43474;46.510;6.686;2023-02-15T03:07:24;29.95;;;12.40;;
57643;SDS011;43474;46.510;6.686;2023-02-15T03:09:54;299.95;;;201.98;;
57643;SDS011;43474;46.510;6.686;2023-02-15T03:14:56;37.13;;;16.15;;
57643;SDS011;43474;46.510;6.686;2023-02-15T03:17:36;38.47;;;15.27;;
57643;SDS011;43474;46.510;6.686;2023-02-15T03:20:51;34.78;;;14.68;;
57643;SDS011;43474;46.510;6.686;2023-02-15T03:22:58;43.13;;;16.30;;
57643;SDS011;43474;46.510;6.686;2023-02-15T03:25:33;40.67;;;16.48;;
57643;SDS011;43474;46.510;6.686;2023-02-15T03:28:03;48.78;;;16.50;;
57643;SDS011;43474;46.510;6.686;2023-02-15T03:30:34;44.58;;;19.30;;
57643;SDS011;43474;46.510;6.686;2023-02-15T03:33:01;56.17;;;19.70;;
57643;SDS011;43474;46.510;6.686;2023-02-15T03:35:41;44.22;;;18.08;;
57643;SDS011;43474;46.510;6.686;2023-02-15T03:38:15;39.63;;;17.83;;
57643;SDS011;43474;46.510;6.686;2023-02-15T03:40:46;40.05;;;16.73;;
57643;SDS011;43474;46.510;6.686;2023-02-15T03:43:49;39.08;;;15.82;;
57643;SDS011;43474;46.510;6.686;2023-02-15T03:48:54;39.13;;;17.02;;
57643;SDS011;43474;46.510;6.686;2023-02-15T03:51:26;33.13;;;14.07;;
57643;SDS011;43474;46.510;6.686;2023-02-15T03:54:12;35.58;;;15.38;;
57643;SDS011;43474;46.510;6.686;2023-02-15T03:57:00;30.73;;;13.63;;
57643;SDS011;43474;46.510;6.686;2023-02-15T03:59:44;37.22;;;14.50;;
57643;SDS011;43474;46.510;6.686;2023-02-15T04:02:30;37.97;;;16.33;;
57643;SDS011;43474;46.510;6.686;2023-02-15T04:05:03;47.67;;;17.50;;
57643;SDS011;43474;46.510;6.686;2023-02-15T04:07:29;42.33;;;19.30;;
57643;SDS011;43474;46.510;6.686;2023-02-15T04:09:54;46.28;;;17.92;;
57643;SDS011;43474;46.510;6.686;2023-02-15T04:12:39;46.67;;;19.45;;
57643;SDS011;43474;46.510;6.686;2023-02-15T04:15:04;44.80;;;18.27;;
57643;SDS011;43474;46.510;6.686;2023-02-15T04:17:48;51.67;;;20.85;;
57643;SDS011;43474;46.510;6.686;2023-02-15T04:20:14;53.45;;;20.15;;
57643;SDS011;43474;46.510;6.686;2023-02-15T04:22:58;57.13;;;21.52;;
57643;SDS011;43474;46.510;6.686;2023-02-15T04:25:42;51.20;;;20.80;;
57643;SDS011;43474;46.510;6.686;2023-02-15T04:28:08;61.63;;;24.05;;
57643;SDS011;43474;46.510;6.686;2023-02-15T04:30:34;60.25;;;22.77;;
57643;SDS011;43474;46.510;6.686;2023-02-15T04:32:59;49.88;;;20.70;;
57643;SDS011;43474;46.510;6.686;2023-02-15T04:35:25;43.35;;;17.83;;
57643;SDS011;43474;46.510;6.686;2023-02-15T04:37:51;34.63;;;14.23;;
57643;SDS011;43474;46.510;6.686;2023-02-15T04:40:16;32.58;;;11.90;;
57643;SDS011;43474;46.510;6.686;2023-02-15T04:42:42;23.42;;;10.25;;
57643;SDS011;43474;46.510;6.686;2023-02-15T04:45:08;26.20;;;9.50;;
57643;SDS011;43474;46.510;6.686;2023-02-15T04:47:34;18.98;;;8.73;;
57643;SDS011;43474;46.510;6.686;2023-02-15T04:49:59;20.63;;;8.85;;
57643;SDS011;43474;46.510;6.686;2023-02-15T04:52:25;16.98;;;8.45;;
57643;SDS011;43474;46.510;6.686;2023-02-15T04:54:50;21.52;;;10.32;;
57643;SDS011;43474;46.510;6.686;2023-02-15T04:57:16;20.13;;;9.85;;
57643;SDS011;43474;46.510;6.686;2023-02-15T04:59:42;22.02;;;10.02;;
57643;SDS011;43474;46.510;6.686;2023-02-15T05:02:07;18.42;;;8.70;;
57643;SDS011;43474;46.510;6.686;2023-02-15T05:04:33;23.65;;;9.35;;
57643;SDS011;43474;46.510;6.686;2023-02-15T05:06:59;26.40;;;10.57;;
57643;SDS011;43474;46.510;6.686;2023-02-15T05:09:25;30.77;;;11.77;;
57643;SDS011;43474;46.510;6.686;2023-02-15T05:11:50;30.35;;;11.85;;
57643;SDS011;43474;46.510;6.686;2023-02-15T05:14:16;35.10;;;14.02;;
57643;SDS011;43474;46.510;6.686;2023-02-15T05:16:42;30.83;;;11.82;;
57643;SDS011;43474;46.510;6.686;2023-02-15T05:19:07;33.30;;;12.68;;
57643;SDS011;43474;46.510;6.686;2023-02-15T05:21:33;31.88;;;11.82;;
57643;SDS011;43474;46.510;6.686;2023-02-15T05:23:59;31.35;;;14.05;;
57643;SDS011;43474;46.510;6.686;2023-02-15T05:26:24;34.05;;;12.93;;
57643;SDS011;43474;46.510;6.686;2023-02-15T05:29:09;39.17;;;13.63;;
57643;SDS011;43474;46.510;6.686;2023-02-15T05:31:35;32.75;;;14.52;;
57643;SDS011;43474;46.510;6.686;2023-02-15T05:34:01;31.73;;;14.35;;
57643;SDS011;43474;46.510;6.686;2023-02-15T05:36:27;37.88;;;15.00;;
57643;SDS011;43474;46.510;6.686;2023-02-15T05:38:54;40.17;;;15.85;;
57643;SDS011;43474;46.510;6.686;2023-02-15T05:41:20;39.85;;;16.08;;
57643;SDS011;43474;46.510;6.686;2023-02-15T05:43:45;44.85;;;15.60;;
57643;SDS011;43474;46.510;6.686;2023-02-15T05:46:11;40.22;;;16.13;;
57643;SDS011;43474;46.510;6.686;2023-02-15T05:48:37;42.95;;;16.35;;
57643;SDS011;43474;46.510;6.686;2023-02-15T05:51:04;39.20;;;17.02;;
57643;SDS011;43474;46.510;6.686;2023-02-15T05:53:35;38.75;;;16.35;;
57643;SDS011;43474;46.510;6.686;2023-02-15T05:56:03;43.53;;;17.40;;
57643;SDS011;43474;46.510;6.686;2023-02-15T05:58:31;45.47;;;17.42;;
57643;SDS011;43474;46.510;6.686;2023-02-15T06:00:58;48.22;;;18.70;;
57643;SDS011;43474;46.510;6.686;2023-02-15T06:03:24;42.25;;;16.70;;
57643;SDS011;43474;46.510;6.686;2023-02-15T06:05:51;41.20;;;16.95;;
57643;SDS011;43474;46.510;6.686;2023-02-15T06:08:17;41.05;;;15.30;;
57643;SDS011;43474;46.510;6.686;2023-02-15T06:10:45;93.80;;;84.65;;
57643;SDS011;43474;46.510;6.686;2023-02-15T06:13:10;89.70;;;64.30;;
57643;SDS011;43474;46.510;6.686;2023-02-15T06:15:36;695.17;;;344.48;;
57643;SDS011;43474;46.510;6.686;2023-02-15T06:18:01;40.30;;;15.45;;
57643;SDS011;43474;46.510;6.686;2023-02-15T06:20:27;144.18;;;131.75;;
57643;SDS011;43474;46.510;6.686;2023-02-15T06:22:53;31.05;;;12.73;;
57643;SDS011;43474;46.510;6.686;2023-02-15T06:25:19;38.67;;;13.88;;
57643;SDS011;43474;46.510;6.686;2023-02-15T06:27:44;30.48;;;12.70;;
57643;SDS011;43474;46.510;6.686;2023-02-15T06:30:10;31.48;;;13.13;;
57643;SDS011;43474;46.510;6.686;2023-02-15T06:32:36;37.50;;;13.90;;
57643;SDS011;43474;46.510;6.686;2023-02-15T06:35:02;45.47;;;16.73;;
57643;SDS011;43474;46.510;6.686;2023-02-15T06:37:28;48.03;;;17.95;;
57643;SDS011;43474;46.510;6.686;2023-02-15T06:39:54;48.60;;;19.33;;
57643;SDS011;43474;46.510;6.686;2023-02-15T06:42:19;42.78;;;18.38;;
57643;SDS011;43474;46.510;6.686;2023-02-15T06:44:45;52.38;;;20.20;;
57643;SDS011;43474;46.510;6.686;2023-02-15T06:47:10;50.45;;;20.38;;
57643;SDS011;43474;46.510;6.686;2023-02-15T06:49:37;51.97;;;20.55;;
57643;SDS011;43474;46.510;6.686;2023-02-15T06:52:03;53.72;;;19.98;;
57643;SDS011;43474;46.510;6.686;2023-02-15T06:54:29;49.97;;;19.77;;
57643;SDS011;43474;46.510;6.686;2023-02-15T06:56:54;53.00;;;20.17;;
57643;SDS011;43474;46.510;6.686;2023-02-15T06:59:20;50.55;;;20.05;;
57643;SDS011;43474;46.510;6.686;2023-02-15T07:01:46;55.92;;;20.73;;
57643;SDS011;43474;46.510;6.686;2023-02-15T07:04:11;58.28;;;22.05;;
57643;SDS011;43474;46.510;6.686;2023-02-15T07:06:37;56.70;;;21.23;;
57643;SDS011;43474;46.510;6.686;2023-02-15T07:09:03;58.72;;;22.00;;
57643;SDS011;43474;46.510;6.686;2023-02-15T07:11:29;58.72;;;22.92;;
57643;SDS011;43474;46.510;6.686;2023-02-15T07:14:14;56.28;;;23.08;;
57643;SDS011;43474;46.510;6.686;2023-02-15T07:16:40;59.08;;;24.77;;
57643;SDS011;43474;46.510;6.686;2023-02-15T07:19:05;61.15;;;24.92;;
57643;SDS011;43474;46.510;6.686;2023-02-15T07:21:32;64.65;;;23.52;;
57643;SDS011;43474;46.510;6.686;2023-02-15T07:23:58;56.90;;;22.92;;
57643;SDS011;43474;46.510;6.686;2023-02-15T07:26:24;62.78;;;23.88;;
57643;SDS011;43474;46.510;6.686;2023-02-15T07:28:50;221.07;;;41.88;;
57643;SDS011;43474;46.510;6.686;2023-02-15T07:31:16;152.68;;;53.22;;
57643;SDS011;43474;46.510;6.686;2023-02-15T07:33:42;102.88;;;54.40;;
57643;SDS011;43474;46.510;6.686;2023-02-15T07:36:08;23.17;;;16.08;;
57643;SDS011;43474;46.510;6.686;2023-02-15T07:38:37;23.35;;;14.93;;
57643;SDS011;43474;46.510;6.686;2023-02-15T07:41:06;19.33;;;14.63;;
57643;SDS011;43474;46.510;6.686;2023-02-15T07:43:34;31.15;;;15.85;;
57643;SDS011;43474;46.510;6.686;2023-02-15T07:46:02;42.95;;;38.25;;
57643;SDS011;43474;46.510;6.686;2023-02-15T07:48:36;142.38;;;129.60;;
57643;SDS011;43474;46.510;6.686;2023-02-15T07:51:03;1999.90;;;999.90;;
57643;SDS011;43474;46.510;6.686;2023-02-15T07:53:30;1999.90;;;999.90;;
57643;SDS011;43474;46.510;6.686;2023-02-15T07:56:03;1999.90;;;999.90;;
57643;SDS011;43474;46.510;6.686;2023-02-15T07:58:32;1999.90;;;999.90;;
57643;SDS011;43474;46.510;6.686;2023-02-15T08:01:16;1999.90;;;999.90;;
57643;SDS011;43474;46.510;6.686;2023-02-15T08:03:53;1999.90;;;999.90;;
57643;SDS011;43474;46.510;6.686;2023-02-15T08:06:19;1999.90;;;999.90;;
57643;SDS011;43474;46.510;6.686;2023-02-15T08:08:46;1999.90;;;999.90;;
57643;SDS011;43474;46.510;6.686;2023-02-15T08:13:59;1999.90;;;999.90;;
57643;SDS011;43474;46.510;6.686;2023-02-15T08:18:59;1999.90;;;999.90;;
57643;SDS011;43474;46.510;6.686;2023-02-15T08:21:27;1999.90;;;999.90;;
57643;SDS011;43474;46.510;6.686;2023-02-15T08:23:54;1999.90;;;999.90;;
57643;SDS011;43474;46.510;6.686;2023-02-15T08:26:21;255.25;;;169.52;;
57643;SDS011;43474;46.510;6.686;2023-02-15T08:28:48;57.50;;;25.92;;
57643;SDS011;43474;46.510;6.686;2023-02-15T08:31:14;92.60;;;83.93;;
57643;SDS011;43474;46.510;6.686;2023-02-15T08:33:41;107.97;;;98.78;;
57643;SDS011;43474;46.510;6.686;2023-02-15T08:36:09;65.53;;;58.47;;
57643;SDS011;43474;46.510;6.686;2023-02-15T08:38:37;58.72;;;37.10;;
57643;SDS011;43474;46.510;6.686;2023-02-15T08:41:10;50.67;;;26.50;;
57643;SDS011;43474;46.510;6.686;2023-02-15T08:43:36;49.70;;;31.73;;
57643;SDS011;43474;46.510;6.686;2023-02-15T08:46:02;59.03;;;50.72;;
57643;SDS011;43474;46.510;6.686;2023-02-15T08:48:28;89.47;;;81.72;;
57643;SDS011;43474;46.510;6.686;2023-02-15T08:50:54;126.38;;;117.05;;
57643;SDS011;43474;46.510;6.686;2023-02-15T08:53:19;158.05;;;146.98;;
57643;SDS011;43474;46.510;6.686;2023-02-15T08:55:56;207.93;;;195.25;;
57643;SDS011;43474;46.510;6.686;2023-02-15T08:58:32;239.55;;;225.95;;
57643;SDS011;43474;46.510;6.686;2023-02-15T09:01:07;260.65;;;246.05;;
57643;SDS011;43474;46.510;6.686;2023-02-15T09:03:34;284.52;;;268.30;;
57643;SDS011;43474;46.510;6.686;2023-02-15T09:06:00;284.95;;;268.40;;
57643;SDS011;43474;46.510;6.686;2023-02-15T09:08:27;278.58;;;262.35;;
57643;SDS011;43474;46.510;6.686;2023-02-15T09:10:53;278.90;;;263.23;;
57643;SDS011;43474;46.510;6.686;2023-02-15T09:13:19;279.60;;;263.33;;
57643;SDS011;43474;46.510;6.686;2023-02-15T09:15:45;261.02;;;246.25;;
57643;SDS011;43474;46.510;6.686;2023-02-15T09:18:11;244.90;;;231.00;;
57643;SDS011;43474;46.510;6.686;2023-02-15T09:20:42;246.00;;;231.83;;
57643;SDS011;43474;46.510;6.686;2023-02-15T09:23:09;253.50;;;239.02;;
57643;SDS011;43474;46.510;6.686;2023-02-15T09:25:34;244.07;;;230.18;;
57643;SDS011;43474;46.510;6.686;2023-02-15T09:28:00;246.45;;;232.63;;
57643;SDS011;43474;46.510;6.686;2023-02-15T09:30:25;253.88;;;239.25;;
57643;SDS011;43474;46.510;6.686;2023-02-15T09:32:51;213.95;;;201.38;;
57643;SDS011;43474;46.510;6.686;2023-02-15T09:35:17;199.25;;;186.90;;
57643;SDS011;43474;46.510;6.686;2023-02-15T09:37:43;198.98;;;186.85;;
57643;SDS011;43474;46.510;6.686;2023-02-15T09:40:13;167.80;;;156.77;;
57643;SDS011;43474;46.510;6.686;2023-02-15T09:42:48;171.65;;;160.30;;
57643;SDS011;43474;46.510;6.686;2023-02-15T09:45:39;178.45;;;166.90;;
57643;SDS011;43474;46.510;6.686;2023-02-15T09:48:22;158.48;;;148.25;;
57643;SDS011;43474;46.510;6.686;2023-02-15T09:53:38;160.32;;;149.75;;
57643;SDS011;43474;46.510;6.686;2023-02-15T09:57:05;165.73;;;155.13;;
57643;SDS011;43474;46.510;6.686;2023-02-15T10:02:23;154.50;;;144.50;;
57643;SDS011;43474;46.510;6.686;2023-02-15T10:05:19;152.48;;;142.02;;
57643;SDS011;43474;46.510;6.686;2023-02-15T10:08:00;150.98;;;141.18;;
57643;SDS011;43474;46.510;6.686;2023-02-15T10:10:34;150.10;;;140.10;;
57643;SDS011;43474;46.510;6.686;2023-02-15T10:18:55;153.45;;;143.30;;
57643;SDS011;43474;46.510;6.686;2023-02-15T10:24:39;150.13;;;139.82;;
57643;SDS011;43474;46.510;6.686;2023-02-15T10:27:29;152.23;;;141.63;;
57643;SDS011;43474;46.510;6.686;2023-02-15T10:30:02;150.38;;;140.18;;
57643;SDS011;43474;46.510;6.686;2023-02-15T10:38:37;150.85;;;140.68;;
57643;SDS011;43474;46.510;6.686;2023-02-15T10:44:02;144.38;;;134.27;;
57643;SDS011;43474;46.510;6.686;2023-02-15T10:54:45;143.48;;;133.50;;
57643;SDS011;43474;46.510;6.686;2023-02-15T11:05:52;145.80;;;135.65;;
57643;SDS011;43474;46.510;6.686;2023-02-15T11:08:20;148.23;;;138.27;;
57643;SDS011;43474;46.510;6.686;2023-02-15T11:10:49;152.70;;;142.23;;
57643;SDS011;43474;46.510;6.686;2023-02-15T11:13:23;156.23;;;145.35;;
57643;SDS011;43474;46.510;6.686;2023-02-15T11:15:57;145.98;;;135.55;;
57643;SDS011;43474;46.510;6.686;2023-02-15T11:18:36;145.38;;;135.70;;
57643;SDS011;43474;46.510;6.686;2023-02-15T11:21:26;150.05;;;139.25;;
57643;SDS011;43474;46.510;6.686;2023-02-15T11:23:57;152.77;;;142.38;;
57643;SDS011;43474;46.510;6.686;2023-02-15T11:26:42;152.55;;;142.25;;
57643;SDS011;43474;46.510;6.686;2023-02-15T11:29:13;159.43;;;148.10;;
57643;SDS011;43474;46.510;6.686;2023-02-15T11:32:03;148.50;;;138.13;;
57643;SDS011;43474;46.510;6.686;2023-02-15T11:34:37;151.10;;;140.15;;
57643;SDS011;43474;46.510;6.686;2023-02-15T11:37:11;147.13;;;136.52;;
57643;SDS011;43474;46.510;6.686;2023-02-15T11:39:42;152.02;;;141.05;;
57643;SDS011;43474;46.510;6.686;2023-02-15T11:42:11;146.50;;;136.02;;
57643;SDS011;43474;46.510;6.686;2023-02-15T11:47:17;143.88;;;133.50;;
57643;SDS011;43474;46.510;6.686;2023-02-15T11:49:42;143.13;;;133.10;;
57643;SDS011;43474;46.510;6.686;2023-02-15T11:52:12;150.25;;;139.45;;
57643;SDS011;43474;46.510;6.686;2023-02-15T11:54:41;149.68;;;139.32;;
57643;SDS011;43474;46.510;6.686;2023-02-15T11:57:11;149.88;;;139.65;;
57643;SDS011;43474;46.510;6.686;2023-02-15T11:59:47;146.40;;;136.25;;
57643;SDS011;43474;46.510;6.686;2023-02-15T12:02:20;146.63;;;136.48;;
57643;SDS011;43474;46.510;6.686;2023-02-15T12:04:48;145.57;;;134.82;;
57643;SDS011;43474;46.510;6.686;2023-02-15T12:12:39;144.18;;;134.02;;
57643;SDS011;43474;46.510;6.686;2023-02-15T12:15:06;141.23;;;131.48;;
57643;SDS011;43474;46.510;6.686;2023-02-15T12:18:15;148.65;;;138.15;;
57643;SDS011;43474;46.510;6.686;2023-02-15T12:20:31;143.70;;;133.55;;
57643;SDS011;43474;46.510;6.686;2023-02-15T12:23:02;140.40;;;130.13;;
57643;SDS011;43474;46.510;6.686;2023-02-15T12:25:36;135.88;;;126.03;;
57643;SDS011;43474;46.510;6.686;2023-02-15T12:28:15;136.70;;;126.85;;
57643;SDS011;43474;46.510;6.686;2023-02-15T12:30:55;135.85;;;125.78;;
57643;SDS011;43474;46.510;6.686;2023-02-15T12:33:34;141.73;;;131.07;;
57643;SDS011;43474;46.510;6.686;2023-02-15T12:36:15;137.80;;;127.40;;
57643;SDS011;43474;46.510;6.686;2023-02-15T12:39:01;137.23;;;127.20;;
57643;SDS011;43474;46.510;6.686;2023-02-15T12:41:29;140.48;;;130.18;;
57643;SDS011;43474;46.510;6.686;2023-02-15T12:44:15;138.80;;;128.48;;
57643;SDS011;43474;46.510;6.686;2023-02-15T12:47:04;139.10;;;129.00;;
57643;SDS011;43474;46.510;6.686;2023-02-15T12:50:04;136.15;;;126.35;;
57643;SDS011;43474;46.510;6.686;2023-02-15T12:52:36;139.52;;;129.07;;
57643;SDS011;43474;46.510;6.686;2023-02-15T12:55:22;145.40;;;134.88;;
57643;SDS011;43474;46.510;6.686;2023-02-15T12:57:49;135.25;;;125.38;;
57643;SDS011;43474;46.510;6.686;2023-02-15T13:00:43;140.20;;;130.07;;
57643;SDS011;43474;46.510;6.686;2023-02-15T13:03:15;143.38;;;132.85;;
57643;SDS011;43474;46.510;6.686;2023-02-15T13:05:44;136.02;;;125.95;;
57643;SDS011;43474;46.510;6.686;2023-02-15T13:16:12;138.02;;;128.38;;
57643;SDS011;43474;46.510;6.686;2023-02-15T13:18:42;132.55;;;123.28;;
57643;SDS011;43474;46.510;6.686;2023-02-15T13:21:13;129.55;;;120.15;;
57643;SDS011;43474;46.510;6.686;2023-02-15T13:23:46;132.40;;;122.68;;
57643;SDS011;43474;46.510;6.686;2023-02-15T13:26:17;128.15;;;118.63;;
57643;SDS011;43474;46.510;6.686;2023-02-15T13:28:46;140.57;;;130.77;;
57643;SDS011;43474;46.510;6.686;2023-02-15T13:31:15;125.20;;;115.88;;
57643;SDS011;43474;46.510;6.686;2023-02-15T13:33:48;74.03;;;66.35;;
57643;SDS011;43474;46.510;6.686;2023-02-15T13:41:15;79.68;;;72.30;;
57643;SDS011;43474;46.510;6.686;2023-02-15T13:46:39;61.78;;;55.17;;
57643;SDS011;43474;46.510;6.686;2023-02-15T13:49:21;56.78;;;50.20;;
57643;SDS011;43474;46.510;6.686;2023-02-15T13:52:12;60.20;;;52.20;;
57643;SDS011;43474;46.510;6.686;2023-02-15T13:57:36;53.47;;;45.53;;
57643;SDS011;43474;46.510;6.686;2023-02-15T14:05:59;53.67;;;43.83;;
57643;SDS011;43474;46.510;6.686;2023-02-15T14:31:32;63.85;;;47.55;;
57643;SDS011;43474;46.510;6.686;2023-02-15T14:34:02;58.95;;;47.58;;
57643;SDS011;43474;46.510;6.686;2023-02-15T14:36:29;54.47;;;47.97;;
57643;SDS011;43474;46.510;6.686;2023-02-15T14:41:53;57.90;;;48.45;;
57643;SDS011;43474;46.510;6.686;2023-02-15T14:47:16;56.90;;;49.08;;
57643;SDS011;43474;46.510;6.686;2023-02-15T14:49:49;57.40;;;47.75;;
57643;SDS011;43474;46.510;6.686;2023-02-15T14:52:15;60.65;;;48.20;;
57643;SDS011;43474;46.510;6.686;2023-02-15T15:01:58;68.28;;;51.67;;
57643;SDS011;43474;46.510;6.686;2023-02-15T15:04:36;63.78;;;51.65;;
57643;SDS011;43474;46.510;6.686;2023-02-15T15:07:22;60.92;;;46.03;;
57643;SDS011;43474;46.510;6.686;2023-02-15T15:10:00;65.47;;;45.25;;
57643;SDS011;43474;46.510;6.686;2023-02-15T15:17:55;62.72;;;46.80;;
57643;SDS011;43474;46.510;6.686;2023-02-15T15:20:37;65.07;;;41.38;;
57643;SDS011;43474;46.510;6.686;2023-02-15T15:28:07;71.50;;;51.63;;
57643;SDS011;43474;46.510;6.686;2023-02-15T15:32:59;74.78;;;62.33;;
57643;SDS011;43474;46.510;6.686;2023-02-15T15:49:20;76.65;;;66.68;;
57643;SDS011;43474;46.510;6.686;2023-02-15T15:51:48;76.68;;;67.22;;
57643;SDS011;43474;46.510;6.686;2023-02-15T15:54:15;78.88;;;70.18;;
57643;SDS011;43474;46.510;6.686;2023-02-15T15:56:51;85.82;;;77.20;;
57643;SDS011;43474;46.510;6.686;2023-02-15T15:59:21;97.43;;;88.45;;
57643;SDS011;43474;46.510;6.686;2023-02-15T16:01:50;101.60;;;92.35;;
57643;SDS011;43474;46.510;6.686;2023-02-15T16:04:26;99.30;;;89.78;;
57643;SDS011;43474;46.510;6.686;2023-02-15T16:06:55;97.85;;;88.43;;
57643;SDS011;43474;46.510;6.686;2023-02-15T16:11:53;101.95;;;92.20;;
57643;SDS011;43474;46.510;6.686;2023-02-15T16:14:29;115.63;;;105.45;;
57643;SDS011;43474;46.510;6.686;2023-02-15T16:17:00;108.68;;;99.25;;
57643;SDS011;43474;46.510;6.686;2023-02-15T16:19:33;110.13;;;100.50;;
57643;SDS011;43474;46.510;6.686;2023-02-15T16:22:03;116.43;;;106.60;;
57643;SDS011;43474;46.510;6.686;2023-02-15T16:27:38;128.57;;;117.53;;
57643;SDS011;43474;46.510;6.686;2023-02-15T16:30:17;127.43;;;116.72;;
57643;SDS011;43474;46.510;6.686;2023-02-15T16:35:38;136.45;;;125.57;;
57643;SDS011;43474;46.510;6.686;2023-02-15T16:38:05;135.20;;;123.50;;
57643;SDS011;43474;46.510;6.686;2023-02-15T16:43:15;141.40;;;131.02;;
57643;SDS011;43474;46.510;6.686;2023-02-15T16:45:46;127.07;;;116.85;;
57643;SDS011;43474;46.510;6.686;2023-02-15T16:48:14;134.48;;;123.88;;
57643;SDS011;43474;46.510;6.686;2023-02-15T16:50:49;142.98;;;132.45;;
57643;SDS011;43474;46.510;6.686;2023-02-15T16:53:19;151.98;;;140.55;;
57643;SDS011;43474;46.510;6.686;2023-02-15T16:55:49;164.30;;;151.90;;
57643;SDS011;43474;46.510;6.686;2023-02-15T16:58:18;168.38;;;155.93;;
57643;SDS011;43474;46.510;6.686;2023-02-15T17:00:51;173.27;;;161.00;;
57643;SDS011;43474;46.510;6.686;2023-02-15T17:03:23;192.25;;;179.77;;
57643;SDS011;43474;46.510;6.686;2023-02-15T17:05:53;197.88;;;185.43;;
57643;SDS011;43474;46.510;6.686;2023-02-15T17:13:23;254.00;;;239.98;;
57643;SDS011;43474;46.510;6.686;2023-02-15T17:18:46;280.45;;;264.98;;
57643;SDS011;43474;46.510;6.686;2023-02-15T17:21:19;287.00;;;270.95;;
57643;SDS011;43474;46.510;6.686;2023-02-15T17:23:49;298.10;;;281.80;;
57643;SDS011;43474;46.510;6.686;2023-02-15T17:26:24;303.30;;;286.40;;
57643;SDS011;43474;46.510;6.686;2023-02-15T17:29:35;313.13;;;296.10;;
57643;SDS011;43474;46.510;6.686;2023-02-15T17:31:49;331.08;;;312.90;;
57643;SDS011;43474;46.510;6.686;2023-02-15T17:37:14;350.65;;;331.40;;
57643;SDS011;43474;46.510;6.686;2023-02-15T17:39:50;356.80;;;337.00;;
57643;SDS011;43474;46.510;6.686;2023-02-15T17:42:16;351.70;;;332.45;;
57643;SDS011;43474;46.510;6.686;2023-02-15T17:44:41;362.00;;;341.08;;